Time;durP1;ratioP1;P1;durP2;ratioP2;P2;SDS_P1;SDS_P2;PMS_P1;PMS_P2;Temp;Humidity;BMP_temperature;BMP_pressure;BME280_temperature;BME280_humidity;BME280_pressure;Samples;Min_cycle;Max_cycle;Signal;HPM_P1;HPM_P2
2022/09/15 00:00:09;;;;;;;;;;;16.20;99.90;;;;;;4971416;28;20154;-55
2022/09/15 00:02:36;;;;;;;7.20;2.40;;;16.20;99.90;;;;;;4972735;28;20184;-56
2022/09/15 00:05:03;;;;;;;3.00;1.80;;;16.20;99.90;;;;;;4971588;28;20415;-56
2022/09/15 00:07:30;;;;;;;3.65;1.85;;;16.20;99.90;;;;;;4973625;28;20040;-55
2022/09/15 00:09:56;;;;;;;;;;;16.20;99.90;;;;;;4975037;28;20044;-56
2022/09/15 00:12:24;;;;;;;5.40;2.47;;;16.10;99.90;;;;;;4975873;28;20361;-56
2022/09/15 00:14:50;;;;;;;8.52;3.25;;;16.10;99.90;;;;;;4970947;28;20197;-56
2022/09/15 00:17:17;;;;;;;;;;;16.20;99.90;;;;;;4970278;28;20081;-56
2022/09/15 00:19:44;;;;;;;3.28;1.70;;;16.20;99.90;;;;;;4969054;28;20089;-56
2022/09/15 00:22:11;;;;;;;8.07;1.90;;;16.20;99.90;;;;;;4972244;28;20127;-56
2022/09/15 00:24:39;;;;;;;4.63;2.20;;;16.20;99.90;;;;;;4973347;28;20049;-56
2022/09/15 00:27:07;;;;;;;4.80;2.17;;;16.30;99.90;;;;;;4974562;28;20840;-55
2022/09/15 00:29:34;;;;;;;3.22;1.60;;;16.30;99.90;;;;;;4965401;28;20760;-55
2022/09/15 00:32:01;;;;;;;5.72;1.60;;;16.30;99.90;;;;;;4969730;28;20090;-56
2022/09/15 00:34:28;;;;;;;5.13;1.40;;;16.30;99.90;;;;;;4972860;28;20206;-56
2022/09/15 00:36:55;;;;;;;4.47;1.50;;;16.20;99.90;;;;;;4971278;28;20353;-56
2022/09/15 00:39:22;;;;;;;1.92;1.48;;;16.30;99.90;;;;;;4977435;28;20189;-57
2022/09/15 00:41:49;;;;;;;6.10;1.40;;;16.30;99.90;;;;;;4968701;28;20585;-56
2022/09/15 00:44:16;;;;;;;2.55;1.10;;;16.20;99.90;;;;;;4959866;28;20053;-56
2022/09/15 00:46:44;;;;;;;;;;;16.20;99.90;;;;;;4969629;28;20041;-56
2022/09/15 00:49:33;;;;;;;3.30;1.27;;;16.20;99.90;;;;;;4969877;28;20114;-56
2022/09/15 00:52:08;;;;;;;4.35;1.33;;;16.20;99.90;;;;;;4969812;28;20059;-56
2022/09/15 00:55:00;;;;;;;3.03;1.13;;;16.20;99.90;;;;;;4976802;28;20510;-57
2022/09/15 00:57:35;;;;;;;1.08;0.98;;;16.20;99.90;;;;;;4974381;28;20189;-55
2022/09/15 01:00:08;;;;;;;1.30;1.08;;;16.20;99.90;;;;;;4965386;28;20420;-56
2022/09/15 01:02:36;;;;;;;3.72;2.00;;;16.10;99.90;;;;;;4968911;28;20037;-56
2022/09/15 01:05:07;;;;;;;2.83;0.95;;;16.10;99.90;;;;;;4970763;28;20102;-56
2022/09/15 01:07:42;;;;;;;3.17;0.93;;;16.00;99.90;;;;;;4987569;28;20244;-56
2022/09/15 01:10:16;;;;;;;1.80;0.95;;;16.00;99.90;;;;;;4974091;28;20108;-56
2022/09/15 01:12:43;;;;;;;3.25;0.93;;;16.00;99.90;;;;;;4966801;28;20050;-56
2022/09/15 01:15:10;;;;;;;7.22;1.17;;;16.00;99.90;;;;;;4974126;28;20803;-56
2022/09/15 01:17:59;;;;;;;1.67;0.90;;;16.00;99.90;;;;;;4976558;28;20842;-55
2022/09/15 01:20:50;;;;;;;0.75;0.73;;;15.90;99.90;;;;;;4963659;28;20052;-56
2022/09/15 01:23:35;;;;;;;3.30;1.10;;;15.90;99.90;;;;;;4965128;28;20798;-55
2022/09/15 01:26:08;;;;;;;2.75;0.88;;;15.90;99.90;;;;;;4968607;28;20037;-56
2022/09/15 01:28:56;;;;;;;0.70;0.70;;;15.80;99.90;;;;;;4966472;28;20045;-56
2022/09/15 01:31:29;;;;;;;4.10;0.85;;;15.80;99.90;;;;;;4976832;28;20876;-57
2022/09/15 01:34:10;;;;;;;3.78;1.88;;;15.80;99.90;;;;;;4965771;28;20399;-56
2022/09/15 01:37:00;;;;;;;1.63;1.02;;;15.80;99.90;;;;;;4971548;28;20114;-56
2022/09/15 01:39:33;;;;;;;4.72;1.10;;;15.80;99.90;;;;;;4968409;28;20858;-54
2022/09/15 01:42:07;;;;;;;2.40;1.10;;;15.80;99.90;;;;;;4961095;28;20044;-56
2022/09/15 01:44:53;;;;;;;2.13;1.45;;;15.70;99.90;;;;;;4967829;28;20542;-56
2022/09/15 01:47:22;;;;;;;2.50;1.27;;;15.80;99.90;;;;;;4972175;28;20037;-56
2022/09/15 01:49:53;;;;;;;2.00;1.20;;;15.80;99.90;;;;;;4976883;28;20144;-55
2022/09/15 01:52:22;;;;;;;3.35;0.93;;;15.80;99.90;;;;;;4975488;28;20052;-55
2022/09/15 01:54:54;;;;;;;4.20;1.77;;;15.90;99.90;;;;;;4968536;28;20123;-55
2022/09/15 01:57:22;;;;;;;4.10;1.30;;;15.90;99.90;;;;;;4970161;28;20294;-56
2022/09/15 01:59:50;;;;;;;1.33;1.00;;;15.90;99.90;;;;;;4968570;28;20156;-57
2022/09/15 02:02:42;;;;;;;4.20;1.38;;;15.90;99.90;;;;;;4968681;28;20423;-57
2022/09/15 02:05:19;;;;;;;4.25;1.92;;;15.80;99.90;;;;;;4971474;28;20038;-56
2022/09/15 02:07:55;;;;;;;4.35;1.58;;;15.80;99.90;;;;;;4972540;28;20817;-56
2022/09/15 02:10:57;;;;;;;8.23;1.60;;;15.80;99.90;;;;;;4973354;28;20052;-56
2022/09/15 02:13:32;;;;;;;2.35;1.38;;;15.80;99.90;;;;;;4948769;28;20346;-56
2022/09/15 02:15:59;;;;;;;2.10;1.50;;;15.90;99.90;;;;;;4967863;28;20148;-56
2022/09/15 02:19:07;;;;;;;4.70;1.33;;;15.90;99.90;;;;;;4968576;28;20593;-56
2022/09/15 02:22:06;;;;;;;4.57;1.10;;;15.90;99.90;;;;;;4928950;28;20045;-56
2022/09/15 02:24:43;;;;;;;4.00;1.40;;;15.80;99.90;;;;;;4970447;28;20052;-56
2022/09/15 02:27:20;;;;;;;1.85;1.02;;;15.80;99.90;;;;;;4970591;28;20041;-56
2022/09/15 02:29:48;;;;;;;3.08;1.50;;;15.80;99.90;;;;;;4974331;28;20045;-56
2022/09/15 02:32:19;;;;;;;3.95;1.60;;;15.70;99.90;;;;;;4975717;28;20045;-59
2022/09/15 02:34:50;;;;;;;8.60;1.50;;;15.70;99.90;;;;;;4970264;28;20048;-55
2022/09/15 02:37:20;;;;;;;5.07;1.90;;;15.60;99.90;;;;;;4973551;28;20055;-55
2022/09/15 02:39:52;;;;;;;6.63;1.30;;;15.50;99.90;;;;;;4973624;28;20805;-55
2022/09/15 02:42:28;;;;;;;5.57;1.85;;;15.40;99.90;;;;;;4976596;28;20398;-58
2022/09/15 02:44:55;;;;;;;5.13;1.75;;;15.30;99.90;;;;;;4977330;28;20033;-57
2022/09/15 02:47:23;;;;;;;1.77;1.27;;;15.20;99.90;;;;;;4968463;28;20496;-57
2022/09/15 02:49:50;;;;;;;1.20;1.10;;;15.20;99.90;;;;;;4966499;28;20284;-57
2022/09/15 02:52:17;;;;;;;4.60;1.30;;;15.10;99.90;;;;;;4974639;28;20044;-57
2022/09/15 02:54:43;;;;;;;2.92;1.63;;;15.00;99.90;;;;;;4967119;28;20045;-56
2022/09/15 02:57:12;;;;;;;4.75;1.33;;;14.90;99.90;;;;;;4965567;28;20041;-57
2022/09/15 03:02:25;;;;;;;5.80;1.88;;;14.80;99.90;;;;;;4973439;28;20380;-56
2022/09/15 03:04:52;;;;;;;4.53;1.70;;;14.80;99.90;;;;;;4975232;28;20112;-55
2022/09/15 03:07:20;;;;;;;12.43;2.22;;;14.80;99.90;;;;;;4978593;28;20923;-57
2022/09/15 03:09:47;;;;;;;6.82;1.95;;;14.70;99.90;;;;;;4971601;28;20239;-56
2022/09/15 03:12:14;;;;;;;3.28;1.70;;;14.70;99.90;;;;;;4961905;28;20361;-57
2022/09/15 03:14:41;;;;;;;2.47;1.55;;;14.70;99.90;;;;;;4975132;28;20040;-57
2022/09/15 03:17:08;;;;;;;2.63;1.73;;;14.70;99.90;;;;;;4972866;28;20041;-56
2022/09/15 03:19:35;;;;;;;5.22;1.98;;;14.70;99.90;;;;;;4970996;28;20663;-56
2022/09/15 03:22:02;;;;;;;;;;;14.70;99.90;;;;;;4973410;28;20033;-57
2022/09/15 03:24:29;;;;;;;2.55;1.48;;;14.70;99.90;;;;;;4974228;28;19931;-56
2022/09/15 03:26:56;;;;;;;3.97;1.52;;;14.70;99.90;;;;;;4963885;28;20266;-56
2022/09/15 03:29:22;;;;;;;;;;;14.70;99.90;;;;;;4973019;28;20049;-55
2022/09/15 03:31:49;;;;;;;6.70;2.28;;;14.60;99.90;;;;;;4980540;28;20340;-57
2022/09/15 03:34:16;;;;;;;5.10;1.77;;;14.60;99.90;;;;;;4978766;28;20052;-57
2022/09/15 03:36:43;;;;;;;7.82;1.67;;;14.60;99.90;;;;;;4976429;28;20053;-55
2022/09/15 03:39:13;;;;;;;2.25;1.58;;;14.60;99.90;;;;;;4974669;28;20689;-56
2022/09/15 03:41:41;;;;;;;3.53;1.63;;;14.60;99.90;;;;;;4973398;28;20045;-57
2022/09/15 03:44:07;;;;;;;3.88;1.40;;;14.60;99.90;;;;;;4973540;28;20800;-57
2022/09/15 03:46:34;;;;;;;3.33;1.85;;;14.60;99.90;;;;;;4979532;28;20052;-58
2022/09/15 03:49:02;;;;;;;;;;;14.60;99.90;;;;;;4971449;28;20052;-56
2022/09/15 03:51:29;;;;;;;2.97;2.05;;;14.50;99.90;;;;;;4961223;28;20182;-56
2022/09/15 03:53:56;;;;;;;6.30;1.45;;;14.60;99.90;;;;;;4965182;28;20213;-57
2022/09/15 03:56:30;;;;;;;4.10;1.83;;;14.50;99.90;;;;;;4973014;28;20427;-58
2022/09/15 03:59:00;;;;;;;2.55;1.40;;;14.50;99.90;;;;;;4966407;28;20041;-57
2022/09/15 04:01:29;;;;;;;6.57;1.63;;;14.50;99.90;;;;;;4953551;28;20143;-56
2022/09/15 04:03:57;;;;;;;2.78;1.92;;;14.50;99.90;;;;;;4971796;28;20122;-57
2022/09/15 04:06:25;;;;;;;3.80;1.75;;;14.50;99.90;;;;;;4978114;28;20438;-56
2022/09/15 04:08:52;;;;;;;4.60;1.52;;;14.50;99.90;;;;;;4978768;28;20041;-56
2022/09/15 04:11:21;;;;;;;5.22;1.45;;;14.50;99.90;;;;;;4970219;28;20452;-57
2022/09/15 04:13:48;;;;;;;2.30;1.65;;;14.40;99.90;;;;;;4974080;28;20152;-57
2022/09/15 04:16:18;;;;;;;5.25;1.70;;;14.50;99.90;;;;;;4972514;28;20045;-53
2022/09/15 04:18:45;;;;;;;5.82;1.92;;;14.40;99.90;;;;;;4968276;28;20046;-56
2022/09/15 04:21:15;;;;;;;1.98;1.42;;;14.40;99.90;;;;;;4970848;28;20053;-54
2022/09/15 04:23:43;;;;;;;8.75;1.63;;;14.30;99.90;;;;;;4962900;28;20051;-55
2022/09/15 04:26:21;;;;;;;1.90;1.70;;;14.30;99.90;;;;;;4971617;28;20037;-55
2022/09/15 04:28:48;;;;;;;3.33;1.40;;;14.30;99.90;;;;;;4970931;28;20041;-54
2022/09/15 04:31:16;;;;;;;5.15;1.50;;;14.30;99.90;;;;;;4965462;28;20049;-54
2022/09/15 04:33:44;;;;;;;6.90;1.35;;;14.20;99.90;;;;;;4971241;28;20049;-55
2022/09/15 04:36:17;;;;;;;2.13;1.92;;;14.10;99.90;;;;;;4974535;28;20574;-55
2022/09/15 04:38:44;;;;;;;11.90;1.73;;;14.10;99.90;;;;;;4969412;28;20058;-55
2022/09/15 04:41:12;;;;;;;;;;;14.10;99.90;;;;;;4969366;28;20148;-54
2022/09/15 04:43:39;;;;;;;7.07;1.60;;;14.10;99.90;;;;;;4972614;28;19925;-56
2022/09/15 04:46:06;;;;;;;1.48;1.30;;;14.10;99.90;;;;;;4972637;28;20037;-55
2022/09/15 04:48:34;;;;;;;4.15;1.58;;;14.10;99.90;;;;;;4970003;28;20072;-54
2022/09/15 04:51:02;;;;;;;3.42;1.40;;;14.10;99.90;;;;;;4971078;28;20384;-54
2022/09/15 04:53:30;;;;;;;4.70;1.33;;;14.00;99.90;;;;;;4969015;28;20033;-54
2022/09/15 04:56:14;;;;;;;3.75;1.77;;;14.10;99.90;;;;;;4974637;28;20158;-54
2022/09/15 04:58:44;;;;;;;5.78;1.80;;;14.00;99.90;;;;;;4985801;28;20512;-54
2022/09/15 05:01:19;;;;;;;4.70;2.15;;;14.00;99.90;;;;;;4966320;28;20257;-54
2022/09/15 05:03:46;;;;;;;2.63;1.80;;;13.90;99.90;;;;;;4968248;28;20041;-54
2022/09/15 05:06:19;;;;;;;2.63;1.27;;;14.00;99.90;;;;;;4974267;28;20044;-54
2022/09/15 05:08:51;;;;;;;4.20;1.80;;;14.00;99.90;;;;;;4979203;28;20571;-54
2022/09/15 05:11:19;;;;;;;4.80;1.55;;;14.00;99.90;;;;;;4962810;28;20053;-55
2022/09/15 05:13:47;;;;;;;3.42;1.15;;;14.00;99.90;;;;;;4978343;28;20507;-55
2022/09/15 05:16:17;;;;;;;4.20;1.60;;;14.10;99.90;;;;;;4970461;28;20452;-54
2022/09/15 05:18:46;;;;;;;4.88;1.63;;;14.10;99.90;;;;;;4974194;28;20064;-54
2022/09/15 05:21:15;;;;;;;3.92;1.58;;;14.10;99.90;;;;;;4969016;28;20162;-54
2022/09/15 05:23:42;;;;;;;3.28;1.65;;;14.10;99.90;;;;;;4967197;28;20053;-55
2022/09/15 05:26:15;;;;;;;6.57;2.25;;;14.10;99.90;;;;;;4977551;28;20551;-59
2022/09/15 05:28:42;;;;;;;10.07;1.88;;;14.10;99.90;;;;;;4965834;28;20059;-53
2022/09/15 05:31:20;;;;;;;9.27;1.73;;;14.10;99.90;;;;;;4972639;28;20578;-54
2022/09/15 05:33:48;;;;;;;2.67;1.52;;;14.20;99.90;;;;;;4963965;28;20102;-53
2022/09/15 05:36:17;;;;;;;4.88;1.65;;;14.20;99.90;;;;;;4972144;28;20048;-52
2022/09/15 05:38:44;;;;;;;3.25;1.60;;;14.30;99.90;;;;;;4970629;28;20064;-55
2022/09/15 05:41:15;;;;;;;5.20;2.88;;;14.30;99.90;;;;;;4963891;28;20052;-53
2022/09/15 05:43:47;;;;;;;5.43;1.55;;;14.40;99.90;;;;;;4972782;28;20041;-53
2022/09/15 05:46:16;;;;;;;5.53;1.52;;;14.40;99.90;;;;;;4969232;28;20064;-55
2022/09/15 05:48:44;;;;;;;1.48;1.30;;;14.50;99.90;;;;;;4970709;28;20049;-54
2022/09/15 05:51:11;;;;;;;7.07;1.80;;;14.60;99.90;;;;;;4977648;28;20060;-53
2022/09/15 05:53:39;;;;;;;4.13;1.42;;;14.70;99.90;;;;;;4976518;28;20037;-52
2022/09/15 05:56:10;;;;;;;3.60;1.60;;;14.70;99.90;;;;;;4956952;28;20727;-53
2022/09/15 05:58:39;;;;;;;4.15;1.13;;;14.80;99.90;;;;;;4970164;28;20803;-54
2022/09/15 06:01:10;;;;;;;8.02;1.85;;;14.90;99.90;;;;;;4967387;28;20056;-54
2022/09/15 06:03:37;;;;;;;2.13;1.17;;;15.00;99.90;;;;;;4975388;28;20067;-54
2022/09/15 06:06:05;;;;;;;6.18;1.50;;;15.20;99.90;;;;;;4972651;28;20197;-53
2022/09/15 06:08:34;;;;;;;3.72;1.30;;;15.30;99.90;;;;;;4972742;28;20037;-53
2022/09/15 06:11:06;;;;;;;1.50;1.10;;;15.40;99.90;;;;;;4976879;28;20044;-52
2022/09/15 06:13:34;;;;;;;1.08;0.98;;;15.50;99.90;;;;;;4980754;28;20203;-53
2022/09/15 06:16:06;;;;;;;2.00;1.25;;;15.50;99.90;;;;;;4970316;28;20045;-54
2022/09/15 06:18:36;;;;;;;5.50;1.40;;;15.60;99.90;;;;;;4968791;28;20210;-54
2022/09/15 06:21:24;;;;;;;1.88;1.17;;;15.60;99.90;;;;;;4972932;28;20037;-54
2022/09/15 06:23:53;;;;;;;3.63;1.48;;;15.60;99.90;;;;;;4974451;28;20084;-53
2022/09/15 06:26:21;;;;;;;3.90;1.30;;;15.60;99.90;;;;;;4953333;28;20069;-55
2022/09/15 06:28:53;;;;;;;2.45;1.38;;;15.60;99.90;;;;;;4971829;28;20717;-54
2022/09/15 06:31:22;;;;;;;3.03;1.10;;;15.60;99.90;;;;;;4981154;28;20038;-54
2022/09/15 06:33:50;;;;;;;2.17;1.27;;;15.60;99.90;;;;;;4972968;28;20045;-54
2022/09/15 06:36:19;;;;;;;3.05;1.10;;;15.60;99.90;;;;;;4981293;28;20392;-54
2022/09/15 06:38:47;;;;;;;2.45;1.17;;;15.60;99.90;;;;;;4982247;28;20911;-54
2022/09/15 06:41:15;;;;;;;1.13;1.02;;;15.70;99.90;;;;;;4977681;28;20224;-55
2022/09/15 06:43:42;;;;;;;1.95;1.00;;;15.70;99.90;;;;;;4981889;28;20040;-55
2022/09/15 06:46:11;;;;;;;12.57;1.90;;;15.70;99.90;;;;;;4977582;28;20357;-54
2022/09/15 06:48:39;;;;;;;3.25;1.38;;;15.80;99.90;;;;;;4970963;28;20207;-57
2022/09/15 06:51:09;;;;;;;6.22;1.05;;;15.80;99.90;;;;;;4977320;28;20844;-54
2022/09/15 06:53:37;;;;;;;5.53;1.08;;;15.90;99.90;;;;;;4975440;28;20684;-54
2022/09/15 06:56:09;;;;;;;5.10;2.08;;;16.00;99.90;;;;;;4973894;28;20056;-56
2022/09/15 06:58:37;;;;;;;2.45;1.45;;;16.00;99.90;;;;;;4970592;28;20202;-55
2022/09/15 07:01:08;;;;;;;4.60;1.13;;;16.10;99.90;;;;;;4972613;28;20045;-56
2022/09/15 07:03:37;;;;;;;4.40;1.38;;;16.20;99.90;;;;;;4977065;28;20066;-55
2022/09/15 07:06:05;;;;;;;2.78;1.25;;;16.30;99.90;;;;;;4974883;28;20064;-57
2022/09/15 07:08:32;;;;;;;1.67;1.10;;;16.40;99.90;;;;;;4971403;28;20044;-56
2022/09/15 07:11:00;;;;;;;3.22;1.02;;;16.40;99.90;;;;;;4975311;28;20151;-54
2022/09/15 07:13:27;;;;;;;6.95;1.15;;;16.60;99.90;;;;;;4978473;28;20144;-55
2022/09/15 07:15:59;;;;;;;1.90;1.10;;;16.60;99.90;;;;;;4974556;28;20309;-55
2022/09/15 07:18:27;;;;;;;1.08;0.98;;;16.70;99.90;;;;;;4977974;28;20045;-55
2022/09/15 07:20:59;;;;;;;1.80;1.13;;;16.80;99.90;;;;;;4975004;28;20029;-54
2022/09/15 07:23:26;;;;;;;1.40;1.30;;;16.90;99.90;;;;;;4977435;28;20929;-54
2022/09/15 07:26:08;;;;;;;0.95;0.82;;;16.90;99.90;;;;;;4989868;28;20565;-58
2022/09/15 07:28:36;;;;;;;2.10;1.30;;;16.90;99.90;;;;;;4970045;28;20036;-57
2022/09/15 07:31:05;;;;;;;2.08;1.05;;;16.90;99.90;;;;;;4973836;28;20048;-58
2022/09/15 07:33:32;;;;;;;2.00;1.15;;;17.00;99.90;;;;;;4976581;28;20048;-54
2022/09/15 07:36:01;;;;;;;1.17;1.05;;;16.90;99.90;;;;;;4978216;28;20111;-56
2022/09/15 07:38:29;;;;;;;1.33;1.08;;;16.90;99.90;;;;;;4974658;28;20037;-55
2022/09/15 07:41:11;;;;;;;2.25;0.90;;;16.90;99.90;;;;;;4980077;28;20614;-57
2022/09/15 07:43:39;;;;;;;3.72;1.13;;;16.80;99.90;;;;;;4980162;28;20182;-57
2022/09/15 07:46:06;;;;;;;1.70;0.90;;;16.70;99.90;;;;;;4979718;28;20353;-57
2022/09/15 07:48:33;;;;;;;9.23;1.65;;;16.70;99.90;;;;;;4965125;28;20117;-58
2022/09/15 07:51:00;;;;;;;2.78;1.10;;;16.60;99.90;;;;;;4949470;28;20049;-56
2022/09/15 07:53:29;;;;;;;2.15;0.93;;;16.60;99.90;;;;;;4971867;28;20040;-57
2022/09/15 07:55:56;;;;;;;14.07;1.58;;;16.50;99.90;;;;;;4971460;28;20240;-57
2022/09/15 07:58:24;;;;;;;1.40;1.00;;;16.50;99.90;;;;;;4971518;28;20059;-57
2022/09/15 08:00:51;;;;;;;1.77;0.95;;;16.40;99.90;;;;;;4972641;28;20885;-56
2022/09/15 08:03:18;;;;;;;2.33;0.98;;;16.40;99.90;;;;;;4978774;28;20334;-56
2022/09/15 08:05:45;;;;;;;1.73;1.00;;;16.40;99.90;;;;;;4974275;28;20045;-57
2022/09/15 08:08:12;;;;;;;1.20;0.88;;;16.30;99.90;;;;;;4980593;28;20091;-57
2022/09/15 08:10:40;;;;;;;2.00;1.13;;;16.30;99.90;;;;;;4963937;28;20041;-57
2022/09/15 08:13:07;;;;;;;2.47;1.20;;;16.30;99.90;;;;;;4973916;28;20037;-56
2022/09/15 08:15:36;;;;;;;3.58;1.65;;;16.20;99.90;;;;;;4975973;28;20134;-54
2022/09/15 08:18:05;;;;;;;3.03;1.38;;;16.20;99.90;;;;;;4979873;28;20073;-56
2022/09/15 08:20:32;;;;;;;2.53;1.60;;;16.20;99.90;;;;;;4967762;28;20045;-55
2022/09/15 08:22:59;;;;;;;2.63;1.30;;;16.10;99.90;;;;;;4972738;28;20131;-56
2022/09/15 08:25:26;;;;;;;6.65;1.80;;;16.10;99.90;;;;;;4968758;28;20050;-54
2022/09/15 08:27:55;;;;;;;3.88;1.10;;;16.10;99.90;;;;;;4982385;28;20609;-54
2022/09/15 08:30:22;;;;;;;6.15;1.77;;;16.10;99.90;;;;;;4979519;28;20041;-55
2022/09/15 08:32:49;;;;;;;2.20;1.52;;;16.10;99.90;;;;;;4969581;28;20451;-54
2022/09/15 08:35:18;;;;;;;1.73;1.45;;;16.20;99.90;;;;;;4979544;28;20778;-56
2022/09/15 08:37:46;;;;;;;2.60;1.50;;;16.20;99.90;;;;;;4970157;28;20543;-55
2022/09/15 08:40:24;;;;;;;2.38;1.63;;;16.30;99.90;;;;;;4969667;28;20049;-57
2022/09/15 08:42:54;;;;;;;5.05;1.30;;;16.30;99.90;;;;;;4968466;28;20837;-55
2022/09/15 08:45:21;;;;;;;1.90;1.23;;;16.40;99.90;;;;;;4974850;28;20194;-55
2022/09/15 08:47:54;;;;;;;2.30;1.25;;;16.50;99.90;;;;;;4962443;28;20048;-56
2022/09/15 08:50:42;;;;;;;5.80;1.50;;;16.60;99.90;;;;;;4969689;28;20044;-55
2022/09/15 08:53:17;;;;;;;2.67;1.30;;;16.60;99.90;;;;;;4968058;28;20041;-55
2022/09/15 08:55:48;;;;;;;3.50;1.33;;;16.70;99.90;;;;;;4980163;28;20593;-54
2022/09/15 08:58:20;;;;;;;4.93;1.77;;;16.90;99.90;;;;;;4968368;28;20071;-55
2022/09/15 09:00:51;;;;;;;2.40;1.10;;;17.00;99.90;;;;;;4988420;28;20369;-55
2022/09/15 09:03:24;;;;;;;3.88;1.25;;;17.10;99.90;;;;;;4976449;28;20816;-54
2022/09/15 09:06:25;;;;;;;2.55;1.20;;;17.20;99.90;;;;;;4968126;28;20404;-55
2022/09/15 09:09:14;;;;;;;2.88;1.65;;;17.40;99.90;;;;;;4975572;28;20033;-56
2022/09/15 09:12:01;;;;;;;1.60;1.13;;;17.40;99.90;;;;;;4969286;28;20046;-55
2022/09/15 09:14:49;;;;;;;4.05;1.52;;;17.50;99.90;;;;;;4973565;28;20049;-54
2022/09/15 09:17:47;;;;;;;2.78;1.30;;;17.60;99.90;;;;;;4953875;28;20045;-55
2022/09/15 09:20:30;;;;;;;2.70;1.00;;;17.60;99.90;;;;;;4978265;28;20050;-55
2022/09/15 09:23:02;;;;;;;2.15;1.42;;;17.60;99.90;;;;;;4966306;28;20099;-55
2022/09/15 09:25:30;;;;;;;2.22;1.27;;;17.60;99.90;;;;;;4973608;28;20552;-54
2022/09/15 09:27:58;;;;;;;2.25;1.15;;;17.60;99.90;;;;;;4965756;28;20336;-55
2022/09/15 09:30:28;;;;;;;6.07;1.45;;;17.70;99.90;;;;;;4971168;28;20782;-55
2022/09/15 09:33:09;;;;;;;3.58;1.23;;;17.80;99.90;;;;;;4966029;28;20245;-57
2022/09/15 09:35:50;;;;;;;2.15;1.10;;;17.90;99.90;;;;;;4969919;28;20053;-56
2022/09/15 09:38:34;;;;;;;2.75;1.08;;;18.10;99.90;;;;;;4970649;28;20049;-54
2022/09/15 09:41:07;;;;;;;2.10;0.95;;;18.20;99.90;;;;;;4979561;28;20072;-63
2022/09/15 09:43:33;;;;;;;2.75;1.00;;;18.30;99.90;;;;;;4971129;28;20114;-57
2022/09/15 09:46:01;;;;;;;2.08;1.30;;;18.50;99.90;;;;;;4963531;28;20172;-56
2022/09/15 09:48:28;;;;;;;2.28;1.17;;;18.50;99.90;;;;;;4966299;28;20103;-58
2022/09/15 09:50:56;;;;;;;1.67;1.02;;;18.60;99.90;;;;;;4979680;28;20042;-56
2022/09/15 09:53:30;;;;;;;2.97;1.42;;;18.70;99.90;;;;;;4969047;28;20041;-55
2022/09/15 09:56:22;;;;;;;3.28;0.98;;;18.70;99.90;;;;;;4951893;28;20456;-54
2022/09/15 09:58:49;;;;;;;3.20;1.70;;;18.90;99.90;;;;;;4968252;28;20040;-55
2022/09/15 10:01:19;;;;;;;4.70;1.00;;;19.00;99.90;;;;;;4964271;28;20085;-55
2022/09/15 10:03:46;;;;;;;4.43;1.02;;;19.10;99.90;;;;;;4973706;28;20048;-56
2022/09/15 10:06:17;;;;;;;1.85;1.00;;;19.30;99.90;;;;;;4970366;28;20597;-55
2022/09/15 10:09:02;;;;;;;4.72;1.17;;;19.30;99.90;;;;;;4977303;28;20316;-57
2022/09/15 10:12:00;;;;;;;2.72;0.93;;;19.30;99.90;;;;;;4980090;28;20048;-55
2022/09/15 10:14:34;;;;;;;4.05;1.00;;;19.20;99.90;;;;;;4971542;28;20045;-57
2022/09/15 10:17:09;;;;;;;4.63;1.10;;;19.10;99.90;;;;;;4972238;28;20041;-56
2022/09/15 10:19:48;;;;;;;2.25;1.10;;;19.00;99.90;;;;;;4974295;28;20304;-57
2022/09/15 10:22:32;;;;;;;3.65;1.10;;;18.90;99.90;;;;;;4981663;28;20254;-57
2022/09/15 10:25:01;;;;;;;2.42;0.65;;;18.70;99.90;;;;;;4975772;28;20072;-57
2022/09/15 10:27:34;;;;;;;1.38;0.82;;;18.60;99.90;;;;;;4978611;28;20202;-55
2022/09/15 10:30:13;;;;;;;1.58;0.65;;;18.50;99.90;;;;;;4977835;28;20547;-57
2022/09/15 10:32:42;;;;;;;0.73;0.70;;;18.40;99.90;;;;;;4976560;28;20032;-56
2022/09/15 10:35:17;;;;;;;3.92;1.00;;;18.30;99.90;;;;;;4978162;28;20041;-57
2022/09/15 10:37:52;;;;;;;2.65;1.08;;;18.20;99.90;;;;;;4977658;28;20042;-57
2022/09/15 10:40:50;;;;;;;4.50;1.10;;;18.20;99.90;;;;;;4971234;28;20122;-59
2022/09/15 10:43:38;;;;;;;2.67;1.10;;;18.10;99.90;;;;;;4960232;28;20240;-58
2022/09/15 10:46:14;;;;;;;1.85;1.52;;;18.10;99.90;;;;;;4975597;28;20324;-57
2022/09/15 10:49:03;;;;;;;1.67;0.77;;;18.10;99.90;;;;;;4966136;28;20037;-56
2022/09/15 10:52:10;;;;;;;0.93;0.90;;;18.20;99.90;;;;;;4956927;28;20068;-57
2022/09/15 10:55:02;;;;;;;2.63;1.05;;;18.30;99.90;;;;;;4942162;28;20468;-57
2022/09/15 10:58:03;;;;;;;2.80;0.90;;;18.50;99.90;;;;;;4963827;28;20111;-58
2022/09/15 11:01:06;;;;;;;4.53;1.00;;;18.50;99.90;;;;;;4962225;28;20656;-57
2022/09/15 11:03:45;;;;;;;1.65;1.05;;;18.50;99.90;;;;;;4962753;28;20132;-57
2022/09/15 11:06:23;;;;;;;1.70;1.25;;;18.50;99.90;;;;;;4969770;28;20052;-57
2022/09/15 11:09:26;;;;;;;1.63;0.70;;;18.40;99.90;;;;;;4971096;28;20543;-57
2022/09/15 11:12:21;;;;;;;4.22;1.00;;;18.30;99.90;;;;;;4981798;28;20156;-56
2022/09/15 11:15:02;;;;;;;2.80;1.23;;;18.30;99.90;;;;;;4990664;28;20318;-56
2022/09/15 11:17:54;;;;;;;3.00;0.98;;;18.30;99.90;;;;;;4975283;28;20041;-57
2022/09/15 11:20:45;;;;;;;4.65;0.93;;;18.30;99.90;;;;;;4990187;28;20355;-56
2022/09/15 11:23:36;;;;;;;3.47;1.33;;;18.20;99.90;;;;;;4974731;28;20388;-57
2022/09/15 11:26:22;;;;;;;1.63;1.02;;;18.20;99.90;;;;;;4977226;28;20050;-56
2022/09/15 11:28:56;;;;;;;3.08;1.20;;;18.20;99.90;;;;;;4967702;28;20101;-57
2022/09/15 11:31:37;;;;;;;2.60;1.00;;;18.20;99.90;;;;;;4970783;28;20234;-57
2022/09/15 11:34:25;;;;;;;2.47;1.30;;;18.20;99.90;;;;;;4974738;28;20045;-55
2022/09/15 11:37:11;;;;;;;2.05;1.38;;;18.20;99.90;;;;;;4979078;28;20352;-57
2022/09/15 11:39:45;;;;;;;2.13;1.02;;;18.20;99.90;;;;;;4970522;28;20091;-58
2022/09/15 11:42:35;;;;;;;1.13;0.90;;;18.20;99.90;;;;;;4956375;28;20052;-56
2022/09/15 11:45:02;;;;;;;5.22;1.20;;;18.00;99.90;;;;;;4976611;28;20562;-58
2022/09/15 11:47:35;;;;;;;1.08;0.80;;;18.00;99.90;;;;;;4973996;28;20180;-58
2022/09/15 11:50:28;;;;;;;1.20;1.10;;;18.00;99.90;;;;;;4969531;28;20037;-58
2022/09/15 11:53:15;;;;;;;1.52;1.00;;;18.00;99.90;;;;;;4967053;28;20211;-58
2022/09/15 11:55:48;;;;;;;1.80;1.13;;;18.20;99.90;;;;;;4973039;28;20197;-58
2022/09/15 11:58:17;;;;;;;5.03;2.30;;;18.60;99.90;;;;;;4971208;28;20049;-57
2022/09/15 12:01:09;;;;;;;5.88;1.73;;;19.20;99.90;;;;;;4964890;28;20391;-57
2022/09/15 12:03:49;;;;;;;2.85;1.50;;;19.90;99.90;;;;;;4976541;28;20383;-57
2022/09/15 12:06:42;;;;;;;1.38;1.05;;;20.10;99.90;;;;;;4975853;28;20053;-55
2022/09/15 12:09:15;;;;;;;2.38;1.50;;;20.20;99.90;;;;;;4972618;28;20036;-58
2022/09/15 12:11:46;;;;;;;2.08;1.35;;;20.10;99.90;;;;;;4970886;28;20101;-59
2022/09/15 12:14:25;;;;;;;1.60;1.00;;;20.00;99.90;;;;;;4987882;28;20207;-59
2022/09/15 12:16:53;;;;;;;1.90;0.93;;;19.80;99.90;;;;;;4971128;28;20099;-59
2022/09/15 12:19:35;;;;;;;1.23;0.95;;;19.60;99.90;;;;;;4976274;28;20052;-59
2022/09/15 12:22:10;;;;;;;2.08;1.30;;;19.40;99.90;;;;;;4972738;28;20418;-59
2022/09/15 12:25:02;;;;;;;3.63;1.92;;;19.20;99.90;;;;;;4965394;28;20053;-57
2022/09/15 12:27:30;;;;;;;2.10;1.10;;;19.00;99.90;;;;;;4974445;28;20282;-59
2022/09/15 12:30:00;;;;;;;2.35;1.45;;;18.70;99.90;;;;;;4980417;28;20045;-59
2022/09/15 12:32:32;;;;;;;3.35;1.45;;;18.50;99.90;;;;;;4967402;28;20555;-58
2022/09/15 12:35:24;;;;;;;2.25;1.30;;;18.40;99.90;;;;;;4973607;28;20041;-59
2022/09/15 12:37:54;;;;;;;8.32;2.85;;;18.30;99.90;;;;;;4969837;28;20164;-59
2022/09/15 12:40:37;;;;;;;4.22;1.27;;;18.20;99.90;;;;;;4968602;28;20055;-59
2022/09/15 12:43:14;;;;;;;2.45;1.13;;;18.10;99.90;;;;;;4970774;28;20050;-59
2022/09/15 12:45:52;;;;;;;1.30;1.13;;;18.00;99.90;;;;;;4969970;28;20106;-60
2022/09/15 12:48:29;;;;;;;1.20;1.10;;;18.00;99.90;;;;;;4971039;28;20110;-59
2022/09/15 12:51:03;;;;;;;4.05;3.28;;;18.00;99.90;;;;;;4978592;28;20822;-60
2022/09/15 12:53:44;;;;;;;13.57;10.73;;;17.90;99.90;;;;;;4966927;28;20589;-59
2022/09/15 12:56:28;;;;;;;5.60;4.22;;;18.00;99.90;;;;;;4973086;28;20217;-59
2022/09/15 12:58:55;;;;;;;2.35;1.80;;;17.90;99.90;;;;;;4976717;28;20495;-59
2022/09/15 13:01:25;;;;;;;3.22;1.55;;;17.90;99.90;;;;;;4978119;28;20403;-59
2022/09/15 13:03:52;;;;;;;2.97;1.15;;;17.90;99.90;;;;;;4978011;28;20056;-59
2022/09/15 13:06:29;;;;;;;2.05;1.20;;;17.80;99.90;;;;;;4972175;28;20570;-59
2022/09/15 13:09:04;;;;;;;1.00;1.00;;;17.80;99.90;;;;;;4976401;28;20041;-59
2022/09/15 13:11:36;;;;;;;2.33;1.20;;;17.70;99.90;;;;;;4969362;28;20069;-59
2022/09/15 13:14:06;;;;;;;3.13;1.58;;;17.70;99.90;;;;;;4973546;28;20033;-59
2022/09/15 13:16:45;;;;;;;0.93;0.93;;;17.70;99.90;;;;;;4972550;28;20600;-58
2022/09/15 13:19:34;;;;;;;4.28;1.48;;;17.60;99.90;;;;;;4970794;28;20320;-59
2022/09/15 13:22:10;;;;;;;2.78;1.80;;;17.70;99.90;;;;;;4965681;28;20211;-59